createdAt,value
2019-03-25T00:00:58.597Z,9.40
2019-03-25T00:03:28.152Z,9.30
2019-03-25T00:05:57.755Z,9.30
2019-03-25T00:10:56.106Z,9.10
2019-03-25T00:13:25.697Z,9.30
2019-03-25T00:15:56.483Z,9.20
2019-03-25T00:18:26.305Z,9.20
2019-03-25T00:20:55.808Z,9.20
2019-03-25T00:23:25.237Z,9.20
2019-03-25T00:25:54.769Z,9.10
2019-03-25T00:28:24.264Z,9.20
2019-03-25T00:30:53.838Z,9.10
2019-03-25T00:33:23.327Z,9.00
2019-03-25T00:35:52.898Z,9.00
2019-03-25T00:38:22.317Z,9.00
2019-03-25T00:40:51.805Z,9.00
2019-03-25T00:43:21.493Z,8.90
2019-03-25T00:45:50.829Z,8.90
2019-03-25T00:48:20.445Z,8.80
2019-03-25T00:50:50.164Z,8.70
2019-03-25T00:53:19.712Z,8.70
2019-03-25T00:55:49.132Z,8.70
2019-03-25T00:58:18.647Z,8.70
2019-03-25T01:00:48.303Z,8.60
2019-03-25T01:03:17.924Z,8.60
2019-03-25T01:05:47.487Z,8.50
2019-03-25T01:08:17.036Z,8.50
2019-03-25T01:10:46.381Z,8.50
2019-03-25T01:13:16.109Z,8.60
2019-03-25T01:15:45.605Z,8.60
2019-03-25T01:18:17.164Z,8.60
2019-03-25T01:20:46.386Z,8.50
2019-03-25T01:23:15.929Z,8.50
2019-03-25T01:25:45.370Z,8.40
2019-03-25T01:28:14.855Z,8.40
2019-03-25T01:30:44.425Z,8.40
2019-03-25T01:33:14.033Z,8.30
2019-03-25T01:35:43.592Z,8.30
2019-03-25T01:38:13.117Z,8.30
2019-03-25T01:40:42.735Z,8.30
2019-03-25T01:43:12.181Z,8.30
2019-03-25T01:45:41.735Z,8.30
2019-03-25T01:48:11.312Z,8.30
2019-03-25T01:50:40.976Z,8.30
2019-03-25T01:53:10.413Z,8.40
2019-03-25T01:55:39.964Z,8.30
2019-03-25T01:58:09.472Z,8.30
2019-03-25T02:00:38.964Z,8.20
2019-03-25T02:03:08.516Z,8.20
2019-03-25T02:05:38.117Z,8.20
2019-03-25T02:08:07.697Z,8.20
2019-03-25T02:13:06.090Z,8.10
2019-03-25T02:15:35.541Z,8.00
2019-03-25T02:18:04.971Z,8.00
2019-03-25T02:20:34.595Z,8.10
2019-03-25T02:23:04.506Z,8.20
2019-03-25T02:25:34.192Z,8.10
2019-03-25T02:28:03.669Z,8.10
2019-03-25T02:30:33.167Z,8.10
2019-03-25T02:35:31.438Z,8.00
2019-03-25T02:38:00.857Z,8.00
2019-03-25T02:40:30.497Z,8.00
2019-03-25T02:43:00.084Z,8.00
2019-03-25T02:45:29.494Z,7.90
2019-03-25T02:47:58.930Z,7.90
2019-03-25T02:50:28.369Z,7.90
2019-03-25T02:52:58.056Z,7.90
2019-03-25T02:55:40.860Z,8.00
2019-03-25T02:57:58.705Z,7.90
2019-03-25T03:00:35.703Z,7.70
2019-03-25T03:03:05.742Z,7.60
2019-03-25T03:05:35.296Z,7.50
2019-03-25T03:10:33.994Z,7.40
2019-03-25T03:15:32.321Z,7.40
2019-03-25T03:18:01.810Z,7.40
2019-03-25T03:20:31.333Z,7.30
2019-03-25T03:23:00.863Z,7.30
2019-03-25T03:25:30.398Z,7.20
2019-03-25T03:27:59.780Z,7.20
2019-03-25T03:30:29.406Z,7.10
2019-03-25T03:32:58.902Z,7.10
2019-03-25T03:35:28.347Z,7.10
2019-03-25T03:37:57.842Z,7.10
2019-03-25T03:40:27.333Z,7.10
2019-03-25T03:42:56.763Z,7.00
2019-03-25T03:45:26.198Z,7.00
2019-03-25T03:47:55.698Z,7.00
2019-03-25T03:50:27.070Z,7.00
2019-03-25T03:52:56.786Z,7.00
2019-03-25T03:55:27.929Z,7.00
2019-03-25T03:57:57.433Z,7.10
2019-03-25T04:00:31.474Z,7.20
2019-03-25T04:05:31.045Z,7.10
2019-03-25T04:08:00.587Z,7.10
2019-03-25T04:10:30.190Z,7.10
2019-03-25T04:12:59.902Z,7.00
2019-03-25T04:15:32.237Z,7.00
2019-03-25T04:18:01.871Z,6.90
2019-03-25T04:20:31.459Z,6.90
2019-03-25T04:23:00.893Z,6.80
2019-03-25T04:25:30.421Z,6.80
2019-03-25T04:27:59.944Z,6.70
2019-03-25T04:30:29.479Z,6.60
2019-03-25T04:32:58.973Z,6.50
2019-03-25T04:35:28.415Z,6.50
2019-03-25T04:37:58.371Z,6.50
2019-03-25T04:40:28.015Z,6.40
2019-03-25T04:42:57.577Z,6.40
2019-03-25T04:45:27.077Z,6.40
2019-03-25T04:47:57.039Z,6.30
2019-03-25T04:50:26.456Z,6.30
2019-03-25T04:52:55.961Z,6.30
2019-03-25T04:55:25.409Z,6.30
2019-03-25T04:57:54.862Z,6.20
2019-03-25T05:00:35.204Z,6.20
2019-03-25T05:03:04.718Z,6.10
2019-03-25T05:05:36.146Z,6.00
2019-03-25T05:08:05.594Z,6.00
2019-03-25T05:10:35.071Z,6.00
2019-03-25T05:13:04.673Z,6.00
2019-03-25T05:15:34.160Z,6.00
2019-03-25T05:18:03.645Z,6.00
2019-03-25T05:20:33.148Z,6.00
2019-03-25T05:23:02.725Z,6.00
2019-03-25T05:25:32.277Z,6.10
2019-03-25T05:28:01.895Z,6.00
2019-03-25T05:30:31.393Z,6.10
2019-03-25T05:33:01.016Z,6.10
2019-03-25T05:35:30.530Z,6.10
2019-03-25T05:37:59.941Z,6.10
2019-03-25T05:40:29.562Z,6.00
2019-03-25T05:42:59.243Z,6.10
2019-03-25T05:45:28.764Z,6.20
2019-03-25T05:47:58.296Z,6.20
2019-03-25T05:52:56.628Z,6.30
2019-03-25T05:55:26.161Z,6.20
2019-03-25T05:57:55.615Z,6.40
2019-03-25T06:00:27.851Z,6.40
2019-03-25T06:02:57.492Z,6.50
2019-03-25T06:05:26.982Z,6.70
2019-03-25T06:07:56.516Z,7.00
2019-03-25T06:10:25.940Z,7.30
2019-03-25T06:12:55.642Z,7.70
2019-03-25T06:15:25.101Z,8.10
2019-03-25T06:17:54.553Z,8.00
2019-03-25T06:22:52.915Z,8.90
2019-03-25T06:25:22.405Z,9.40
2019-03-25T06:27:51.951Z,9.90
2019-03-25T06:30:21.525Z,10.00
2019-03-25T06:35:19.957Z,9.70
2019-03-25T06:37:49.451Z,9.80
2019-03-25T06:40:19.037Z,10.20
2019-03-25T06:42:48.755Z,10.10
2019-03-25T06:45:18.177Z,9.90
2019-03-25T06:47:47.678Z,9.90
2019-03-25T06:50:17.148Z,9.90
2019-03-25T06:55:15.568Z,9.60
2019-03-25T06:57:47.935Z,9.80
2019-03-25T07:44:50.529Z,8.50
2019-03-25T10:49:17.551Z,9.70
2019-03-25T15:43:12.312Z,7.90
2019-03-25T16:45:34.162Z,6.60
2019-03-25T17:23:48.628Z,5.70
2019-03-25T17:26:18.124Z,5.80
2019-03-25T17:28:47.625Z,5.90
2019-03-25T17:31:21.223Z,6.00
2019-03-25T17:33:48.713Z,5.80
2019-03-25T17:36:18.313Z,5.80
2019-03-25T17:38:47.956Z,5.80
2019-03-25T17:41:17.551Z,5.90
2019-03-25T17:43:47.113Z,6.10
2019-03-25T17:46:16.570Z,6.30
2019-03-25T17:48:46.113Z,6.30
2019-03-25T17:56:13.561Z,6.10
2019-03-25T17:58:43.216Z,6.20
2019-03-25T18:03:49.840Z,6.30
2019-03-25T18:06:19.469Z,6.10
2019-03-25T18:08:49.054Z,5.90
2019-03-25T18:11:18.504Z,5.80
2019-03-25T18:13:48.174Z,5.60
2019-03-25T18:16:17.633Z,5.70
2019-03-25T18:18:47.305Z,5.60
2019-03-25T18:21:16.950Z,5.70
2019-03-25T18:23:46.622Z,5.80
2019-03-25T18:26:16.243Z,5.70
2019-03-25T18:28:45.812Z,5.60
2019-03-25T18:31:15.476Z,5.60
2019-03-25T18:36:14.244Z,5.50
2019-03-25T18:38:43.843Z,5.40
2019-03-25T18:41:14.545Z,5.50
2019-03-25T18:43:44.231Z,5.50
2019-03-25T18:46:13.765Z,5.60
2019-03-25T18:48:43.291Z,5.70
2019-03-25T18:51:12.873Z,6.00
2019-03-25T18:53:42.419Z,6.00
2019-03-25T18:56:12.000Z,6.00
2019-03-25T18:58:41.645Z,6.00
2019-03-25T19:01:13.063Z,6.00
2019-03-25T19:03:42.594Z,6.00
2019-03-25T19:06:15.121Z,6.00
2019-03-25T19:08:44.867Z,6.30
2019-03-25T19:11:14.549Z,6.40
2019-03-25T19:13:44.356Z,6.20
2019-03-25T19:16:14.126Z,6.30
2019-03-25T19:18:43.857Z,6.30
2019-03-25T19:21:13.779Z,6.40
2019-03-25T19:23:43.229Z,6.50
2019-03-25T19:26:13.037Z,6.60
2019-03-25T19:28:42.734Z,6.60
2019-03-25T19:31:12.290Z,6.60
2019-03-25T19:33:41.957Z,6.70
2019-03-25T19:36:13.429Z,6.80
2019-03-25T19:38:45.255Z,6.60
2019-03-25T19:43:43.841Z,6.50
2019-03-25T19:51:14.604Z,6.30
2019-03-25T19:56:32.223Z,6.10
2019-03-25T19:59:01.848Z,6.10
2019-03-25T20:01:31.516Z,6.10
2019-03-25T20:04:01.204Z,5.90
2019-03-25T20:06:30.914Z,5.90
2019-03-25T20:09:00.652Z,5.80
2019-03-25T20:11:30.402Z,5.80
2019-03-25T20:13:59.983Z,5.70
2019-03-25T20:18:58.724Z,5.70
2019-03-25T20:23:57.521Z,5.30
2019-03-25T20:26:27.126Z,5.20
2019-03-25T20:28:56.799Z,5.10
2019-03-25T20:33:55.417Z,5.10
2019-03-25T20:36:25.098Z,5.10
2019-03-25T20:38:54.733Z,5.20
2019-03-25T20:43:53.390Z,5.00
2019-03-25T20:46:22.910Z,5.10
2019-03-25T20:48:52.566Z,4.90
2019-03-25T20:51:22.515Z,5.00
2019-03-25T20:53:52.083Z,4.90
2019-03-25T20:56:21.656Z,5.00
2019-03-25T20:58:51.202Z,4.90
2019-03-25T21:01:20.822Z,4.90
2019-03-25T21:03:50.401Z,4.90
2019-03-25T21:06:20.215Z,4.90
2019-03-25T21:08:50.001Z,4.80
2019-03-25T21:11:19.676Z,4.80
2019-03-25T21:13:49.223Z,4.80
2019-03-25T21:18:47.893Z,4.80
2019-03-25T21:21:17.710Z,4.70
2019-03-25T21:23:47.475Z,4.70
2019-03-25T21:26:17.299Z,4.60
2019-03-25T21:28:46.968Z,4.70
2019-03-25T21:31:27.067Z,4.60
2019-03-25T21:36:25.734Z,4.70
2019-03-25T21:38:55.564Z,4.60
2019-03-25T21:41:25.299Z,4.60
2019-03-25T21:43:54.934Z,4.60
2019-03-25T21:46:24.635Z,4.50
2019-03-25T21:48:54.245Z,4.50
2019-03-25T21:51:24.053Z,4.60
2019-03-25T21:53:53.716Z,4.50
2019-03-25T21:56:23.370Z,4.50
2019-03-25T21:58:53.054Z,4.50
2019-03-25T22:01:23.377Z,4.50
2019-03-25T22:03:53.171Z,4.50
2019-03-25T22:06:22.956Z,4.50
2019-03-25T22:11:21.421Z,4.50
2019-03-25T22:13:50.942Z,4.50
2019-03-25T22:16:20.560Z,4.40
2019-03-25T22:18:50.093Z,4.40
2019-03-25T22:21:19.716Z,4.30
2019-03-25T22:23:49.246Z,4.40
2019-03-25T22:26:18.765Z,4.40
2019-03-25T22:28:48.366Z,4.40
2019-03-25T22:31:18.064Z,4.40
2019-03-25T22:33:47.792Z,4.40
2019-03-25T22:36:17.228Z,4.40
2019-03-25T22:38:46.817Z,4.40
2019-03-25T22:41:16.463Z,4.40
2019-03-25T22:43:46.013Z,4.40
2019-03-25T22:48:44.509Z,4.30
2019-03-25T22:51:14.015Z,4.30
2019-03-25T22:53:43.579Z,4.30
2019-03-25T22:58:41.913Z,4.40
2019-03-25T23:01:11.577Z,4.40
2019-03-25T23:03:41.355Z,4.40
2019-03-25T23:06:10.991Z,4.40
2019-03-25T23:08:40.569Z,4.30
2019-03-25T23:13:38.877Z,4.40
2019-03-25T23:16:08.513Z,4.30
2019-03-25T23:21:07.051Z,4.30
2019-03-25T23:23:36.845Z,4.40
